Time;durP1;ratioP1;P1;durP2;ratioP2;P2;SDS_P1;SDS_P2;PMS_P1;PMS_P2;Temp;Humidity;BMP_temperature;BMP_pressure;BME280_temperature;BME280_humidity;BME280_pressure;Samples;Min_cycle;Max_cycle;Signal;HPM_P1;HPM_P2
2023/04/11 00:00:54;;;;;;;;;;;;;;;4.58;73.38;101480.92;107816;1254;125628;-81
2023/04/11 00:03:21;;;;;;;;;;;;;;;4.58;73.54;101477.95;107644;1254;67487;-81
2023/04/11 00:05:48;;;;;;;;;;;;;;;4.57;73.39;101476.88;107911;1253;72678;-82
2023/04/11 00:08:15;;;;;;;;;;;;;;;4.56;73.50;101469.84;108001;1254;125019;-79
2023/04/11 00:10:42;;;;;;;;;;;;;;;4.54;73.45;101464.67;107897;1255;61421;-79
2023/04/11 00:13:09;;;;;;;;;;;;;;;4.53;73.41;101465.52;107593;1254;124815;-79
2023/04/11 00:15:38;;;;;;;;;;;;;;;4.53;73.45;101464.08;108118;1257;67625;-82
2023/04/11 00:18:05;;;;;;;;;;;;;;;4.52;73.40;101459.48;108115;1254;73277;-79
2023/04/11 00:20:32;;;;;;;;;;;;;;;4.50;73.48;101457.14;107777;1254;123967;-79
2023/04/11 00:22:59;;;;;;;;;;;;;;;4.49;73.57;101454.65;107537;1260;61709;-79
2023/04/11 00:25:28;;;;;;;;;;;;;;;4.47;73.55;101449.54;107606;1253;123928;-80
2023/04/11 00:27:55;;;;;;;;;;;;;;;4.46;73.60;101444.05;107762;1254;65548;-79
2023/04/11 00:30:22;;;;;;;;;;;;;;;4.45;73.51;101441.20;108028;1254;71213;-79
2023/04/11 00:32:49;;;;;;;;;;;;;;;4.43;73.57;101434.15;108092;1254;123787;-79
2023/04/11 00:35:16;;;;;;;;;;;;;;;4.42;73.57;101430.25;109123;1254;59128;-79
2023/04/11 00:37:44;;;;;;;;;;;;;;;4.39;73.66;101425.92;108890;1254;123899;-80
2023/04/11 00:40:13;;;;;;;;;;;;;;;4.36;73.52;101423.96;109029;1259;66871;-80
2023/04/11 00:42:40;;;;;;;;;;;;;;;4.32;73.52;101418.68;109065;1254;72742;-81
2023/04/11 00:45:08;;;;;;;;;;;;;;;4.27;73.55;101419.27;107978;1260;124286;-81
2023/04/11 00:47:35;;;;;;;;;;;;;;;4.24;73.59;101413.70;107652;1254;61680;-81
2023/04/11 00:50:02;;;;;;;;;;;;;;;4.20;73.60;101413.11;107671;1254;123802;-82
2023/04/11 00:52:31;;;;;;;;;;;;;;;4.17;73.70;101404.07;107433;1254;67116;-80
2023/04/11 00:55:03;;;;;;;;;;;;;;;4.14;73.75;101398.34;107653;1253;123892;-80
2023/04/11 00:57:31;;;;;;;;;;;;;;;4.12;73.85;101396.98;107612;1260;59860;-80
2023/04/11 00:59:58;;;;;;;;;;;;;;;4.10;73.99;101393.41;107266;1260;61111;-80
2023/04/11 01:02:25;;;;;;;;;;;;;;;4.08;73.77;101389.95;107499;1254;123841;-81
2023/04/11 01:04:52;;;;;;;;;;;;;;;4.05;73.99;101392.61;107335;1257;67068;-80
2023/04/11 01:07:21;;;;;;;;;;;;;;;4.02;73.81;101386.82;107409;1254;124050;-80
2023/04/11 01:09:48;;;;;;;;;;;;;;;3.99;73.85;101381.77;107572;1254;61269;-80
2023/04/11 01:12:15;;;;;;;;;;;;;;;3.97;74.00;101376.96;107664;1254;59943;-80
2023/04/11 01:14:46;;;;;;;;;;;;;;;3.95;74.03;101371.42;107437;1254;124197;-80
2023/04/11 01:17:20;;;;;;;;;;;;;;;3.92;73.96;101370.05;107841;1255;67102;-80
2023/04/11 01:19:47;;;;;;;;;;;;;;;3.89;73.99;101369.55;107789;1254;124198;-80
2023/04/11 01:22:16;;;;;;;;;;;;;;;3.88;74.21;101367.54;107890;1254;60331;-80
2023/04/11 01:24:43;;;;;;;;;;;;;;;3.86;74.19;101368.50;107750;1254;124473;-81
2023/04/11 01:27:10;;;;;;;;;;;;;;;3.83;74.32;101370.19;108250;1254;73192;-80
2023/04/11 01:29:37;;;;;;;;;;;;;;;3.79;74.18;101366.33;107640;1254;67403;-81
2023/04/11 01:32:04;;;;;;;;;;;;;;;3.74;74.25;101355.77;107537;1260;124350;-81
2023/04/11 01:34:33;;;;;;;;;;;;;;;3.74;74.40;101360.59;107683;1254;60875;-82
2023/04/11 01:37:02;;;;;;;;;;;;;;;3.71;74.34;101356.95;107748;1254;124377;-81
2023/04/11 01:39:29;;;;;;;;;;;;;;;3.68;74.42;101358.67;108015;1254;73667;-82
2023/04/11 01:42:02;;;;;;;;;;;;;;;3.65;74.37;101355.73;107752;1253;65878;-80
2023/04/11 01:44:30;;;;;;;;;;;;;;;3.64;74.61;101348.71;107573;1254;124600;-81
2023/04/11 01:46:58;;;;;;;;;;;;;;;3.64;74.59;101347.14;108371;1256;61259;-81
2023/04/11 01:49:25;;;;;;;;;;;;;;;3.62;74.66;101335.57;108189;1253;125173;-80
2023/04/11 01:51:52;;;;;;;;;;;;;;;3.64;74.76;101338.31;108169;1254;74659;-82
2023/04/11 01:54:19;;;;;;;;;;;;;;;3.64;74.71;101331.39;107952;1259;67366;-81
2023/04/11 01:56:46;;;;;;;;;;;;;;;3.65;74.84;101328.83;107611;1254;125244;-81
2023/04/11 01:59:14;;;;;;;;;;;;;;;3.64;74.65;101319.71;107643;1254;61200;-82
2023/04/11 02:01:41;;;;;;;;;;;;;;;3.64;74.74;101315.70;107649;1254;124638;-81
2023/04/11 02:04:08;;;;;;;;;;;;;;;3.64;74.86;101318.02;108038;1254;73360;-81
2023/04/11 02:06:35;;;;;;;;;;;;;;;3.66;74.89;101317.58;108307;1254;67099;-81
2023/04/11 02:09:03;;;;;;;;;;;;;;;3.67;75.03;101316.47;108243;1254;124574;-81
2023/04/11 02:11:30;;;;;;;;;;;;;;;3.69;74.81;101312.77;108106;1253;60797;-83
2023/04/11 02:13:57;;;;;;;;;;;;;;;3.69;74.83;101306.84;108155;1254;123690;-81
2023/04/11 02:16:24;;;;;;;;;;;;;;;3.68;74.83;101308.19;108096;1254;75231;-81
2023/04/11 02:18:53;;;;;;;;;;;;;;;3.68;74.79;101306.65;108088;1257;66971;-81
2023/04/11 02:21:21;;;;;;;;;;;;;;;3.70;74.85;101301.02;107963;1256;72750;-81
2023/04/11 02:23:47;;;;;;;;;;;;;;;3.72;74.96;101298.31;108031;1254;59262;-81
2023/04/11 02:26:15;;;;;;;;;;;;;;;3.74;74.90;101298.63;108854;1254;124975;-81
2023/04/11 02:28:42;;;;;;;;;;;;;;;3.75;74.81;101291.90;109209;1253;74994;-80
2023/04/11 02:31:09;;;;;;;;;;;;;;;3.76;74.83;101287.13;109126;1253;125262;-80
2023/04/11 02:33:36;;;;;;;;;;;;;;;3.75;74.78;101290.58;109174;1254;72684;-80
2023/04/11 02:36:03;;;;;;;;;;;;;;;3.74;74.74;101288.91;109199;1254;59349;-80
2023/04/11 02:38:29;;;;;;;;;;;;;;;3.75;74.82;101282.20;109101;1253;124683;-80
2023/04/11 02:40:58;;;;;;;;;;;;;;;3.73;74.62;101279.65;109140;1254;72237;-80
2023/04/11 02:43:25;;;;;;;;;;;;;;;3.69;74.65;101275.28;109039;1254;125368;-81
2023/04/11 02:45:52;;;;;;;;;;;;;;;3.67;74.47;101270.65;109224;1253;73764;-80
2023/04/11 02:48:19;;;;;;;;;;;;;;;3.65;74.59;101268.98;109034;1254;59364;-80
2023/04/11 02:50:46;;;;;;;;;;;;;;;3.63;74.56;101254.96;109164;1253;125170;-80
2023/04/11 02:53:15;;;;;;;;;;;;;;;3.61;74.52;101249.99;109116;1254;74642;-80
2023/04/11 02:55:42;;;;;;;;;;;;;;;3.61;74.65;101248.89;108924;1254;124774;-80
2023/04/11 02:58:09;;;;;;;;;;;;;;;3.60;74.56;101252.48;109295;1253;71388;-80
2023/04/11 03:00:37;;;;;;;;;;;;;;;3.57;74.57;101248.14;109277;1253;58880;-80
2023/04/11 03:03:05;;;;;;;;;;;;;;;3.55;74.62;101245.77;109211;1253;124861;-80
2023/04/11 03:05:32;;;;;;;;;;;;;;;3.54;74.60;101242.95;109316;1253;74689;-81
2023/04/11 03:07:59;;;;;;;;;;;;;;;3.53;74.72;101241.32;108365;1254;124937;-81
2023/04/11 03:10:26;;;;;;;;;;;;;;;3.51;74.86;101241.19;107869;1253;71236;-81
2023/04/11 03:12:53;;;;;;;;;;;;;;;3.50;74.80;101236.64;107743;1253;124740;-81
2023/04/11 03:15:20;;;;;;;;;;;;;;;3.50;74.67;101230.91;107732;1259;61011;-81
2023/04/11 03:17:47;;;;;;;;;;;;;;;3.48;74.85;101229.77;107886;1254;74673;-81
2023/04/11 03:20:18;;;;;;;;;;;;;;;3.46;74.85;101232.73;107930;1254;124634;-81
2023/04/11 03:22:45;;;;;;;;;;;;;;;3.44;74.63;101232.11;108153;1254;73003;-81
2023/04/11 03:25:12;;;;;;;;;;;;;;;3.44;74.68;101227.03;107843;1255;124902;-81
2023/04/11 03:27:39;;;;;;;;;;;;;;;3.42;74.72;101227.95;107974;1254;62296;-81
2023/04/11 03:30:07;;;;;;;;;;;;;;;3.39;74.72;101221.89;108117;1254;73092;-81
2023/04/11 03:32:34;;;;;;;;;;;;;;;3.37;74.67;101223.49;107928;1253;124663;-81
2023/04/11 03:35:01;;;;;;;;;;;;;;;3.35;74.63;101217.46;108133;1254;71252;-82
2023/04/11 03:37:28;;;;;;;;;;;;;;;3.35;74.95;101213.65;107930;1257;124484;-82
2023/04/11 03:39:55;;;;;;;;;;;;;;;3.35;74.83;101212.41;107822;1254;61136;-82
2023/04/11 03:42:22;;;;;;;;;;;;;;;3.35;74.84;101210.18;109027;1253;73197;-81
2023/04/11 03:44:49;;;;;;;;;;;;;;;3.34;74.78;101206.64;109176;1253;124076;-81
2023/04/11 03:47:16;;;;;;;;;;;;;;;3.33;75.05;101203.33;108876;1254;72409;-81
2023/04/11 03:49:50;;;;;;;;;;;;;;;3.34;75.06;101196.93;107881;1254;124379;-81
2023/04/11 03:52:17;;;;;;;;;;;;;;;3.33;75.13;101194.25;107723;1258;59187;-79
2023/04/11 03:54:44;;;;;;;;;;;;;;;3.33;75.07;101187.19;107510;1258;74821;-78
2023/04/11 03:57:11;;;;;;;;;;;;;;;3.35;75.13;101181.52;107707;1254;124655;-77
2023/04/11 03:59:38;;;;;;;;;;;;;;;3.37;75.25;101181.52;107701;1254;73230;-79
2023/04/11 04:02:05;;;;;;;;;;;;;;;3.41;75.32;101175.15;107674;1257;123807;-79
2023/04/11 04:04:32;;;;;;;;;;;;;;;3.45;75.28;101166.89;109054;1253;59210;-78
2023/04/11 04:07:00;;;;;;;;;;;;;;;3.59;75.72;101164.08;108976;1254;123834;-78
2023/04/11 04:09:27;;;;;;;;;;;;;;;3.88;76.11;101161.82;109021;1254;65580;-77
2023/04/11 04:11:54;;;;;;;;;;;;;;;4.27;76.19;101164.73;109075;1254;72749;-78
2023/04/11 04:14:21;;;;;;;;;;;;;;;4.64;76.00;101153.97;108926;1254;123736;-80
2023/04/11 04:16:48;;;;;;;;;;;;;;;4.78;75.01;101150.54;109181;1253;59046;-81
2023/04/11 04:19:15;;;;;;;;;;;;;;;4.71;74.45;101149.81;109049;1254;124019;-78
2023/04/11 04:21:44;;;;;;;;;;;;;;;4.63;74.32;101142.80;109094;1253;65768;-79
2023/04/11 04:24:11;;;;;;;;;;;;;;;4.60;74.21;101142.27;108851;1260;72428;-80
2023/04/11 04:26:38;;;;;;;;;;;;;;;4.62;74.47;101147.08;109026;1254;123950;-81
2023/04/11 04:29:05;;;;;;;;;;;;;;;4.83;74.70;101144.38;109264;1253;59075;-79
2023/04/11 04:31:35;;;;;;;;;;;;;;;5.40;75.46;101135.40;108996;1253;123904;-82
2023/04/11 04:34:07;;;;;;;;;;;;;;;6.21;75.61;101131.30;107719;1253;66885;-78
2023/04/11 04:36:46;;;;;;;;;;;;;;;7.08;75.36;101128.56;107698;1254;72496;-81
2023/04/11 04:39:17;;;;;;;;;;;;;;;8.04;74.82;101123.76;107941;1254;59953;-80
2023/04/11 04:41:47;;;;;;;;;;;;;;;8.89;74.18;101125.22;107895;1254;60216;-79
2023/04/11 04:44:15;;;;;;;;;;;;;;;9.88;73.52;101124.55;107607;1253;124857;-79
2023/04/11 04:46:42;;;;;;;;;;;;;;;10.86;72.51;101114.17;107809;1254;66071;-79
2023/04/11 04:49:09;;;;;;;;;;;;;;;11.76;71.39;101111.95;107703;1254;124833;-78
2023/04/11 04:51:37;;;;;;;;;;;;;;;12.67;70.41;101107.63;107835;1254;60965;-78
2023/04/11 04:54:04;;;;;;;;;;;;;;;13.52;69.31;101107.27;109020;1254;59321;-78
2023/04/11 04:56:31;;;;;;;;;;;;;;;14.19;67.98;101098.20;108096;1253;125133;-78
2023/04/11 04:58:58;;;;;;;;;;;;;;;14.74;66.93;101099.02;108025;1253;67574;-78
2023/04/11 05:01:25;;;;;;;;;;;;;;;15.19;65.84;101094.11;108034;1254;125644;-79
2023/04/11 05:03:59;;;;;;;;;;;;;;;15.46;64.64;101091.75;108572;1254;59935;-80
2023/04/11 05:06:30;;;;;;;;;;;;;;;15.61;63.58;101094.36;108876;1254;60704;-81
2023/04/11 05:08:57;;;;;;;;;;;;;;;15.67;62.63;101086.30;108802;1254;125244;-81
2023/04/11 05:11:25;;;;;;;;;;;;;;;15.38;61.57;101087.58;109086;1254;65818;-80
2023/04/11 05:13:52;;;;;;;;;;;;;;;14.93;60.41;101087.77;108858;1254;124225;-80
2023/04/11 05:16:21;;;;;;;;;;;;;;;14.33;60.10;101084.98;108979;1253;58917;-81
2023/04/11 05:18:48;;;;;;;;;;;;;;;13.77;60.08;101080.38;108195;1253;59963;-81
2023/04/11 05:21:15;;;;;;;;;;;;;;;13.29;60.13;101076.15;107509;1254;74508;-81
2023/04/11 05:23:42;;;;;;;;;;;;;;;12.87;60.23;101066.66;107334;1254;67048;-79
2023/04/11 05:26:10;;;;;;;;;;;;;;;12.52;60.53;101069.98;107496;1254;72388;-79
2023/04/11 05:28:37;;;;;;;;;;;;;;;12.24;60.79;101068.28;107730;1254;61082;-79
2023/04/11 05:31:04;;;;;;;;;;;;;;;12.01;60.95;101071.78;107849;1257;124359;-78
2023/04/11 05:33:31;;;;;;;;;;;;;;;11.72;61.15;101065.94;107684;1254;74574;-78
2023/04/11 05:35:58;;;;;;;;;;;;;;;11.53;61.55;101066.84;108065;1253;67728;-78
2023/04/11 05:38:25;;;;;;;;;;;;;;;11.38;61.73;101068.04;107874;1257;124645;-79
2023/04/11 05:40:52;;;;;;;;;;;;;;;11.18;61.91;101061.70;107826;1254;61232;-80
2023/04/11 05:43:20;;;;;;;;;;;;;;;11.15;62.44;101063.73;107568;1253;124432;-81
2023/04/11 05:45:53;;;;;;;;;;;;;;;11.08;62.34;101059.14;107690;1254;74485;-85
2023/04/11 05:48:21;;;;;;;;;;;;;;;11.01;62.76;101055.08;107348;1254;65891;-83
2023/04/11 05:50:48;;;;;;;;;;;;;;;10.98;62.85;101055.00;107314;1256;124894;-82
2023/04/11 05:53:16;;;;;;;;;;;;;;;10.91;63.02;101052.70;107888;1254;60496;-79
2023/04/11 05:55:43;;;;;;;;;;;;;;;10.91;63.40;101054.30;108033;1254;124334;-80
2023/04/11 05:58:10;;;;;;;;;;;;;;;10.93;63.45;101049.77;107932;1253;74679;-83
2023/04/11 06:00:39;;;;;;;;;;;;;;;10.88;63.61;101045.09;107506;1254;65995;-83
2023/04/11 06:03:09;;;;;;;;;;;;;;;10.88;63.68;101045.77;107623;1254;124293;-84
2023/04/11 06:05:37;;;;;;;;;;;;;;;10.86;63.79;101043.08;107232;1259;61305;-82
2023/04/11 06:08:06;;;;;;;;;;;;;;;10.84;64.05;101037.92;107192;1257;124557;-82
2023/04/11 06:10:33;;;;;;;;;;;;;;;10.88;64.23;101030.85;107142;1254;74719;-82
2023/04/11 06:13:00;;;;;;;;;;;;;;;10.95;64.44;101023.30;107305;1253;124304;-79
2023/04/11 06:15:30;;;;;;;;;;;;;;;11.02;64.55;101021.06;107198;1254;70692;-81
2023/04/11 06:17:58;;;;;;;;;;;;;;;11.09;64.63;101013.86;107096;1254;59452;-82
2023/04/11 06:20:25;;;;;;;;;;;;;;;11.16;64.71;101004.75;107535;1254;124049;-82
2023/04/11 06:22:52;;;;;;;;;;;;;;;11.13;64.58;100995.88;107874;1253;74423;-82
2023/04/11 06:25:19;;;;;;;;;;;;;;;11.08;64.57;100994.89;107345;1253;124849;-81
2023/04/11 06:27:46;;;;;;;;;;;;;;;11.07;64.74;100985.72;107364;1254;71398;-80
2023/04/11 06:30:14;;;;;;;;;;;;;;;11.09;64.97;100983.13;107825;1254;59393;-80
2023/04/11 06:32:40;;;;;;;;;;;;;;;11.15;65.08;100981.02;107841;1254;124916;-79
2023/04/11 06:35:08;;;;;;;;;;;;;;;11.19;65.01;100973.73;107899;1253;73514;-79
2023/04/11 06:37:35;;;;;;;;;;;;;;;11.25;65.23;100970.56;107882;1253;124696;-79
2023/04/11 06:40:04;;;;;;;;;;;;;;;11.31;65.05;100970.52;107972;1257;72714;-79
2023/04/11 06:42:31;;;;;;;;;;;;;;;11.34;65.34;100969.39;107974;1253;61110;-79
2023/04/11 06:44:58;;;;;;;;;;;;;;;11.42;65.43;100967.28;107857;1253;124633;-79
2023/04/11 06:47:25;;;;;;;;;;;;;;;11.52;65.52;100961.56;107988;1253;73460;-79
2023/04/11 06:49:52;;;;;;;;;;;;;;;11.66;65.73;100952.76;107819;1254;124418;-81
2023/04/11 06:52:19;;;;;;;;;;;;;;;11.79;65.63;100950.60;107953;1253;71378;-82
2023/04/11 06:54:46;;;;;;;;;;;;;;;11.82;65.48;100948.39;107676;1256;61256;-79
2023/04/11 06:57:13;;;;;;;;;;;;;;;11.84;65.40;100948.08;108802;1253;124447;-79
2023/04/11 06:59:40;;;;;;;;;;;;;;;11.82;65.46;100942.06;107675;1254;72158;-79
2023/04/11 07:02:07;;;;;;;;;;;;;;;11.82;65.93;100936.26;107801;1254;125016;-79
2023/04/11 07:04:34;;;;;;;;;;;;;;;11.89;66.22;100933.27;107772;1254;72662;-79
2023/04/11 07:07:01;;;;;;;;;;;;;;;11.96;66.31;100928.86;107870;1254;124926;-79
2023/04/11 07:09:28;;;;;;;;;;;;;;;12.03;66.62;100923.56;107822;1253;61480;-81
2023/04/11 07:11:56;;;;;;;;;;;;;;;12.11;66.66;100924.63;107562;1254;73131;-84
2023/04/11 07:14:23;;;;;;;;;;;;;;;12.17;66.79;100919.12;107475;1253;124734;-79
2023/04/11 07:16:50;;;;;;;;;;;;;;;12.24;66.90;100918.56;107930;1254;70991;-79
2023/04/11 07:19:17;;;;;;;;;;;;;;;12.36;67.18;100915.98;107517;1259;125928;-83
2023/04/11 07:21:44;;;;;;;;;;;;;;;12.52;67.32;100914.55;107388;1254;61353;-80
2023/04/11 07:24:12;;;;;;;;;;;;;;;12.69;67.34;100912.40;107696;1254;74978;-81
2023/04/11 07:26:41;;;;;;;;;;;;;;;12.84;67.37;100910.39;107690;1254;125334;-80
2023/04/11 07:29:17;;;;;;;;;;;;;;;12.98;67.22;100907.30;107670;1253;73791;-85
2023/04/11 07:31:44;;;;;;;;;;;;;;;13.17;67.28;100908.52;107742;1253;124712;-82
2023/04/11 07:34:11;;;;;;;;;;;;;;;13.39;67.23;100902.73;107815;1260;61135;-84
2023/04/11 07:36:38;;;;;;;;;;;;;;;13.57;67.14;100900.90;108256;1253;73347;-83
2023/04/11 07:39:10;;;;;;;;;;;;;;;13.77;67.22;100897.65;108135;1254;124287;-83
2023/04/11 07:41:38;;;;;;;;;;;;;;;13.95;66.83;100895.45;107884;1253;72713;-82
2023/04/11 07:44:08;;;;;;;;;;;;;;;14.08;66.61;100895.08;107805;1254;125807;-83
2023/04/11 07:46:35;;;;;;;;;;;;;;;14.23;66.53;100895.09;107715;1253;60115;-81
2023/04/11 07:49:02;;;;;;;;;;;;;;;14.41;66.31;100890.36;107495;1257;124793;-83
2023/04/11 07:51:30;;;;;;;;;;;;;;;14.57;66.15;100885.09;107752;1254;66779;-81
2023/04/11 07:53:57;;;;;;;;;;;;;;;14.71;65.88;100883.11;107960;1254;72698;-82
2023/04/11 07:56:24;;;;;;;;;;;;;;;14.82;65.68;100875.45;107848;1254;136958;-82
2023/04/11 07:58:51;;;;;;;;;;;;;;;15.00;65.65;100881.10;108181;1254;59295;-81
2023/04/11 08:01:19;;;;;;;;;;;;;;;15.16;65.51;100873.64;107936;1253;124702;-81
2023/04/11 08:03:47;;;;;;;;;;;;;;;15.26;64.94;100872.66;108255;1257;67029;-81
2023/04/11 08:06:14;;;;;;;;;;;;;;;15.32;64.69;100868.98;108171;1253;72368;-81
2023/04/11 08:08:41;;;;;;;;;;;;;;;15.47;64.61;100866.09;107896;1253;124058;-84
2023/04/11 08:11:08;;;;;;;;;;;;;;;15.63;64.36;100857.16;107826;1254;60010;-84
2023/04/11 08:13:36;;;;;;;;;;;;;;;15.76;64.02;100855.15;107782;1254;124989;-83
2023/04/11 08:16:07;;;;;;;;;;;;;;;15.87;63.77;100851.32;107910;1253;67031;-84
2023/04/11 08:18:34;;;;;;;;;;;;;;;15.99;63.48;100850.48;107486;1254;72421;-83
2023/04/11 08:21:03;;;;;;;;;;;;;;;16.09;63.15;100850.52;107442;1254;124076;-84
2023/04/11 08:23:30;;;;;;;;;;;;;;;16.16;62.80;100842.06;107701;1254;61326;-83
2023/04/11 08:25:57;;;;;;;;;;;;;;;16.27;62.72;100845.10;107743;1256;74606;-82
2023/04/11 08:28:24;;;;;;;;;;;;;;;16.37;62.44;100840.52;107767;1257;67182;-81
2023/04/11 08:30:54;;;;;;;;;;;;;;;16.41;62.26;100835.58;108008;1253;73177;-81
2023/04/11 08:33:22;;;;;;;;;;;;;;;16.47;62.13;100834.71;107421;1254;124496;-81
2023/04/11 08:35:49;;;;;;;;;;;;;;;16.51;61.71;100828.70;107512;1254;59750;-83
2023/04/11 08:38:17;;;;;;;;;;;;;;;16.57;61.64;100824.63;107726;1254;124955;-82
2023/04/11 08:40:44;;;;;;;;;;;;;;;16.65;61.57;100820.38;107840;1253;67044;-82
2023/04/11 08:43:13;;;;;;;;;;;;;;;16.79;61.56;100817.23;107711;1254;124328;-82
2023/04/11 08:45:41;;;;;;;;;;;;;;;16.94;61.29;100816.52;107842;1253;61047;-82
2023/04/11 08:48:14;;;;;;;;;;;;;;;17.03;60.93;100816.71;107905;1254;61031;-83
2023/04/11 08:50:41;;;;;;;;;;;;;;;17.11;60.60;100809.27;107855;1253;124599;-82
2023/04/11 08:53:08;;;;;;;;;;;;;;;17.16;60.36;100803.05;107599;1254;66430;-82
2023/04/11 08:55:42;;;;;;;;;;;;;;;17.28;60.40;100798.77;107408;1254;124891;-81
2023/04/11 08:58:10;;;;;;;;;;;;;;;17.42;60.22;100797.33;107701;1254;59734;-82
2023/04/11 09:00:37;;;;;;;;;;;;;;;17.51;59.79;100791.27;107656;1254;60080;-81
2023/04/11 09:03:04;;;;;;;;;;;;;;;17.61;59.67;100788.76;107748;1254;125292;-82
2023/04/11 09:05:32;;;;;;;;;;;;;;;17.68;59.32;100781.10;108034;1254;65750;-82
2023/04/11 09:08:00;;;;;;;;;;;;;;;17.76;59.11;100771.66;107721;1254;124698;-82
2023/04/11 09:10:27;;;;;;;;;;;;;;;17.83;58.79;100771.64;107973;1254;59560;-84
2023/04/11 09:12:54;;;;;;;;;;;;;;;17.83;58.52;100764.00;108033;1257;60085;-81
2023/04/11 09:15:25;;;;;;;;;;;;;;;17.83;58.31;100763.83;107726;1254;124182;-82
2023/04/11 09:17:52;;;;;;;;;;;;;;;17.88;58.17;100759.39;107870;1253;67531;-85
2023/04/11 09:20:20;;;;;;;;;;;;;;;17.96;57.95;100750.30;107705;1253;124048;-83
2023/04/11 09:22:47;;;;;;;;;;;;;;;18.02;57.78;100750.80;107701;1254;60166;-82
2023/04/11 09:25:15;;;;;;;;;;;;;;;18.07;57.65;100753.08;107520;1254;124319;-82
2023/04/11 09:27:42;;;;;;;;;;;;;;;18.15;57.55;100747.16;107483;1255;74807;-83
2023/04/11 09:30:21;;;;;;;;;;;;;;;18.19;57.15;100738.44;107474;1257;65701;-82
2023/04/11 09:32:51;;;;;;;;;;;;;;;18.18;56.86;100731.70;107416;1254;125741;-84
2023/04/11 09:35:27;;;;;;;;;;;;;;;18.19;56.74;100726.54;107744;1257;59699;-82
2023/04/11 09:37:55;;;;;;;;;;;;;;;18.17;56.61;100722.11;107638;1254;124162;-82
2023/04/11 09:40:25;;;;;;;;;;;;;;;18.11;56.33;100719.31;107715;1258;238295;-82
2023/04/11 09:42:57;;;;;;;;;;;;;;;18.12;56.36;100715.58;107836;1260;66462;-82
2023/04/11 09:45:24;;;;;;;;;;;;;;;18.18;56.29;100711.46;107878;1254;73879;-82
2023/04/11 09:47:52;;;;;;;;;;;;;;;18.18;55.99;100707.55;107782;1259;60901;-82
2023/04/11 09:50:19;;;;;;;;;;;;;;;18.20;55.67;100700.26;107566;1254;124151;-83
2023/04/11 09:52:46;;;;;;;;;;;;;;;18.21;55.35;100704.33;107784;1254;76285;-81
2023/04/11 09:55:15;;;;;;;;;;;;;;;18.25;55.20;100704.65;107556;1261;124677;-82
2023/04/11 09:57:44;;;;;;;;;;;;;;;18.28;55.09;100700.90;107510;1259;71100;-82
2023/04/11 10:00:18;;;;;;;;;;;;;;;18.34;54.96;100691.80;107577;1256;61256;-82
2023/04/11 10:02:47;;;;;;;;;;;;;;;18.43;54.94;100687.29;107830;1254;124733;-81
2023/04/11 10:05:18;;;;;;;;;;;;;;;18.49;54.72;100682.78;107663;1254;75754;-82
2023/04/11 10:07:51;;;;;;;;;;;;;;;18.54;54.70;100683.45;107750;1256;124566;-82
2023/04/11 10:10:19;;;;;;;;;;;;;;;18.57;54.27;100680.23;107993;1258;71137;-80
2023/04/11 10:12:46;;;;;;;;;;;;;;;18.55;53.82;100677.77;108102;1257;61725;-80
2023/04/11 10:15:13;;;;;;;;;;;;;;;18.56;53.62;100674.91;107923;1257;124902;-80
2023/04/11 10:17:40;;;;;;;;;;;;;;;18.55;53.39;100671.88;108109;1255;73811;-81
2023/04/11 10:20:26;;;;;;;;;;;;;;;18.56;53.18;100669.77;107727;1259;124532;-81
2023/04/11 10:22:56;;;;;;;;;;;;;;;18.68;53.14;100666.98;107849;1259;71182;-80
2023/04/11 10:25:24;;;;;;;;;;;;;;;18.82;52.73;100662.41;107947;1255;125078;-81
2023/04/11 10:27:59;;;;;;;;;;;;;;;18.95;52.65;100659.08;107783;1259;62268;-80
2023/04/11 10:30:39;;;;;;;;;;;;;;;19.09;52.42;100651.10;107866;1256;74683;-81
2023/04/11 10:33:16;;;;;;;;;;;;;;;19.21;52.02;100653.09;107848;1256;124336;-81
2023/04/11 10:36:03;;;;;;;;;;;;;;;19.29;52.07;100645.00;107969;1257;72720;-83
2023/04/11 10:38:40;;;;;;;;;;;;;;;19.37;51.86;100644.19;107662;1254;124511;-82
2023/04/11 10:41:16;;;;;;;;;;;;;;;19.33;51.41;100638.70;107846;1254;60262;-83
2023/04/11 10:43:44;;;;;;;;;;;;;;;19.28;51.33;100631.65;107518;1254;124209;-83
2023/04/11 10:46:21;;;;;;;;;;;;;;;19.15;51.20;100624.54;107740;1254;65499;-85
2023/04/11 10:49:00;;;;;;;;;;;;;;;19.05;51.12;100630.88;107596;1254;73198;-84
2023/04/11 10:51:27;;;;;;;;;;;;;;;18.95;51.15;100625.83;107753;1254;59846;-83
2023/04/11 10:53:57;;;;;;;;;;;;;;;18.85;51.16;100620.27;107869;1254;59463;-83
2023/04/11 10:56:47;;;;;;;;;;;;;;;18.84;51.33;100615.64;107635;1255;124713;-83
2023/04/11 10:59:37;;;;;;;;;;;;;;;18.93;51.37;100613.23;107753;1259;67056;-84
2023/04/11 11:02:12;;;;;;;;;;;;;;;19.05;51.17;100611.84;107549;1258;124540;-84
2023/04/11 11:04:39;;;;;;;;;;;;;;;19.06;50.82;100610.06;107649;1254;59656;-83
2023/04/11 11:07:06;;;;;;;;;;;;;;;18.96;50.62;100608.94;107901;1255;124834;-83
2023/04/11 11:09:33;;;;;;;;;;;;;;;18.90;50.74;100610.77;108951;1254;74428;-83
2023/04/11 11:12:11;;;;;;;;;;;;;;;18.92;50.85;100609.68;107780;1254;66846;-87
2023/04/11 11:14:39;;;;;;;;;;;;;;;18.91;50.61;100608.82;107352;1255;124218;-83
2023/04/11 11:17:07;;;;;;;;;;;;;;;18.80;50.52;100601.10;107531;1256;62319;-82
2023/04/11 11:19:34;;;;;;;;;;;;;;;18.82;50.54;100595.75;107496;1254;124565;-82
2023/04/11 11:22:05;;;;;;;;;;;;;;;18.91;50.43;100594.58;107503;1254;74694;-81
2023/04/11 11:24:32;;;;;;;;;;;;;;;18.98;50.35;100596.80;107422;1256;65864;-80
2023/04/11 11:26:59;;;;;;;;;;;;;;;18.99;50.23;100589.16;107547;1257;125020;-80
2023/04/11 11:29:33;;;;;;;;;;;;;;;18.99;49.99;100585.41;107609;1254;61238;-80
2023/04/11 11:32:02;;;;;;;;;;;;;;;19.02;49.98;100586.45;107401;1254;126216;-81
2023/04/11 11:34:29;;;;;;;;;;;;;;;18.98;49.72;100582.23;107506;1254;74779;-80
2023/04/11 11:36:57;;;;;;;;;;;;;;;18.94;49.77;100578.55;107498;1254;65956;-80
2023/04/11 11:39:29;;;;;;;;;;;;;;;18.99;49.74;100574.03;107496;1260;74454;-80
2023/04/11 11:41:56;;;;;;;;;;;;;;;19.07;49.60;100568.26;107654;1254;61154;-83
2023/04/11 11:44:27;;;;;;;;;;;;;;;19.13;49.30;100572.80;107468;1254;124207;-80
2023/04/11 11:47:01;;;;;;;;;;;;;;;19.11;49.04;100574.60;107604;1259;73265;-81
2023/04/11 11:49:41;;;;;;;;;;;;;;;18.99;48.77;100571.38;107683;1254;124859;-80
2023/04/11 11:52:08;;;;;;;;;;;;;;;18.91;48.81;100575.21;107498;1254;71071;-81
2023/04/11 11:54:42;;;;;;;;;;;;;;;18.88;48.69;100573.11;107360;1259;61387;-81
2023/04/11 11:57:08;;;;;;;;;;;;;;;18.91;48.70;100570.77;107529;1254;124099;-80
2023/04/11 11:59:36;;;;;;;;;;;;;;;18.99;48.53;100573.52;107726;1254;73466;-78
2023/04/11 12:02:03;;;;;;;;;;;;;;;19.07;48.40;100572.34;107443;1254;124590;-79
2023/04/11 12:04:30;;;;;;;;;;;;;;;19.19;48.28;100567.54;107570;1254;71183;-78
2023/04/11 12:07:06;;;;;;;;;;;;;;;19.26;48.20;100565.16;107595;1254;59537;-80
2023/04/11 12:09:33;;;;;;;;;;;;;;;19.24;48.02;100562.87;109256;1253;59331;-81
2023/04/11 12:12:00;;;;;;;;;;;;;;;19.17;47.89;100557.98;108616;1254;74571;-79
2023/04/11 12:14:28;;;;;;;;;;;;;;;19.14;47.87;100557.47;107844;1254;125654;-79
2023/04/11 12:16:55;;;;;;;;;;;;;;;19.15;47.81;100560.84;107773;1259;72714;-79
2023/04/11 12:19:22;;;;;;;;;;;;;;;19.14;47.80;100557.48;107520;1254;124789;-79
2023/04/11 12:21:49;;;;;;;;;;;;;;;19.20;47.70;100557.39;107590;1254;59986;-79
2023/04/11 12:24:16;;;;;;;;;;;;;;;19.26;47.65;100552.88;107327;1253;74674;-81
2023/04/11 12:26:45;;;;;;;;;;;;;;;19.32;47.51;100548.70;107519;1254;124710;-78
2023/04/11 12:29:12;;;;;;;;;;;;;;;19.41;47.45;100548.40;107800;1254;72726;-79
2023/04/11 12:31:39;;;;;;;;;;;;;;;19.48;47.30;100544.91;107823;1254;124849;-80